sensor_id;sensor_type;location;lat;lon;timestamp;P1;durP1;ratioP1;P2;durP2;ratioP2
14019;SDS011;7085;51.428;6.796;2023-06-14T03:02:49;5.07;;;3.65;;
14019;SDS011;7085;51.428;6.796;2023-06-14T03:05:17;4.78;;;2.97;;
14019;SDS011;7085;51.428;6.796;2023-06-14T03:07:46;6.07;;;3.35;;
14019;SDS011;7085;51.428;6.796;2023-06-14T03:10:13;8.07;;;3.22;;
14019;SDS011;7085;51.428;6.796;2023-06-14T03:12:40;4.45;;;3.15;;
14019;SDS011;7085;51.428;6.796;2023-06-14T03:15:08;4.32;;;2.90;;
14019;SDS011;7085;51.428;6.796;2023-06-14T03:17:36;3.63;;;3.00;;
14019;SDS011;7085;51.428;6.796;2023-06-14T03:20:05;5.30;;;2.85;;
14019;SDS011;7085;51.428;6.796;2023-06-14T03:22:33;5.13;;;2.72;;
14019;SDS011;7085;51.428;6.796;2023-06-14T03:25:00;5.63;;;3.40;;
14019;SDS011;7085;51.428;6.796;2023-06-14T03:27:29;4.10;;;3.35;;
14019;SDS011;7085;51.428;6.796;2023-06-14T03:29:56;3.10;;;2.50;;
14019;SDS011;7085;51.428;6.796;2023-06-14T03:32:23;5.88;;;3.10;;
14019;SDS011;7085;51.428;6.796;2023-06-14T03:34:50;3.42;;;3.08;;
14019;SDS011;7085;51.428;6.796;2023-06-14T03:37:19;5.78;;;2.97;;
14019;SDS011;7085;51.428;6.796;2023-06-14T03:39:46;5.22;;;2.80;;
14019;SDS011;7085;51.428;6.796;2023-06-14T03:42:13;4.25;;;2.55;;
14019;SDS011;7085;51.428;6.796;2023-06-14T03:44:40;3.30;;;2.80;;
14019;SDS011;7085;51.428;6.796;2023-06-14T03:47:07;4.70;;;2.50;;
14019;SDS011;7085;51.428;6.796;2023-06-14T03:49:35;3.25;;;2.92;;
14019;SDS011;7085;51.428;6.796;2023-06-14T03:52:02;3.58;;;2.60;;
14019;SDS011;7085;51.428;6.796;2023-06-14T03:54:30;3.92;;;2.60;;
14019;SDS011;7085;51.428;6.796;2023-06-14T03:56:58;6.32;;;2.75;;
14019;SDS011;7085;51.428;6.796;2023-06-14T03:59:25;4.50;;;2.88;;
14019;SDS011;7085;51.428;6.796;2023-06-14T04:01:53;4.32;;;2.95;;
14019;SDS011;7085;51.428;6.796;2023-06-14T04:04:20;6.63;;;3.13;;
14019;SDS011;7085;51.428;6.796;2023-06-14T04:06:53;3.80;;;2.83;;
14019;SDS011;7085;51.428;6.796;2023-06-14T04:09:21;4.00;;;2.40;;
14019;SDS011;7085;51.428;6.796;2023-06-14T04:11:51;3.28;;;2.70;;
14019;SDS011;7085;51.428;6.796;2023-06-14T04:14:18;4.07;;;3.10;;
14019;SDS011;7085;51.428;6.796;2023-06-14T04:16:45;5.78;;;3.13;;
14019;SDS011;7085;51.428;6.796;2023-06-14T04:19:12;2.75;;;2.28;;
14019;SDS011;7085;51.428;6.796;2023-06-14T04:21:39;4.35;;;2.70;;
14019;SDS011;7085;51.428;6.796;2023-06-14T04:24:06;4.75;;;2.72;;
14019;SDS011;7085;51.428;6.796;2023-06-14T04:26:38;2.70;;;2.50;;
14019;SDS011;7085;51.428;6.796;2023-06-14T04:29:07;3.42;;;2.63;;
14019;SDS011;7085;51.428;6.796;2023-06-14T04:31:34;2.63;;;2.42;;
14019;SDS011;7085;51.428;6.796;2023-06-14T04:34:04;2.95;;;2.35;;
14019;SDS011;7085;51.428;6.796;2023-06-14T04:36:32;4.97;;;2.38;;
14019;SDS011;7085;51.428;6.796;2023-06-14T04:39:01;4.53;;;2.85;;
14019;SDS011;7085;51.428;6.796;2023-06-14T04:41:29;4.18;;;2.63;;
14019;SDS011;7085;51.428;6.796;2023-06-14T04:43:56;3.55;;;2.75;;
14019;SDS011;7085;51.428;6.796;2023-06-14T04:46:30;8.38;;;2.58;;
14019;SDS011;7085;51.428;6.796;2023-06-14T04:48:58;3.13;;;2.58;;
14019;SDS011;7085;51.428;6.796;2023-06-14T04:51:27;2.33;;;2.15;;
14019;SDS011;7085;51.428;6.796;2023-06-14T04:53:56;3.53;;;2.85;;
14019;SDS011;7085;51.428;6.796;2023-06-14T04:56:23;3.80;;;2.67;;
14019;SDS011;7085;51.428;6.796;2023-06-14T04:58:51;4.95;;;2.60;;
14019;SDS011;7085;51.428;6.796;2023-06-14T05:01:19;2.88;;;2.53;;
14019;SDS011;7085;51.428;6.796;2023-06-14T05:03:47;4.63;;;2.65;;
14019;SDS011;7085;51.428;6.796;2023-06-14T05:06:15;5.68;;;2.83;;
14019;SDS011;7085;51.428;6.796;2023-06-14T05:08:42;2.92;;;2.25;;
14019;SDS011;7085;51.428;6.796;2023-06-14T05:11:10;2.83;;;2.33;;
14019;SDS011;7085;51.428;6.796;2023-06-14T05:13:42;3.70;;;2.58;;
14019;SDS011;7085;51.428;6.796;2023-06-14T05:16:09;5.80;;;3.42;;
14019;SDS011;7085;51.428;6.796;2023-06-14T05:18:37;4.70;;;2.75;;
14019;SDS011;7085;51.428;6.796;2023-06-14T05:21:06;2.83;;;2.58;;
14019;SDS011;7085;51.428;6.796;2023-06-14T05:23:33;5.60;;;2.90;;
14019;SDS011;7085;51.428;6.796;2023-06-14T05:26:00;4.53;;;2.20;;
14019;SDS011;7085;51.428;6.796;2023-06-14T05:28:29;5.63;;;2.80;;
14019;SDS011;7085;51.428;6.796;2023-06-14T05:30:56;3.03;;;2.20;;
14019;SDS011;7085;51.428;6.796;2023-06-14T05:33:24;6.97;;;2.60;;
14019;SDS011;7085;51.428;6.796;2023-06-14T05:35:51;5.93;;;2.55;;
14019;SDS011;7085;51.428;6.796;2023-06-14T05:38:19;5.30;;;2.78;;
14019;SDS011;7085;51.428;6.796;2023-06-14T05:40:46;2.95;;;2.75;;
14019;SDS011;7085;51.428;6.796;2023-06-14T05:43:13;3.83;;;2.47;;
14019;SDS011;7085;51.428;6.796;2023-06-14T05:45:40;3.40;;;2.78;;
14019;SDS011;7085;51.428;6.796;2023-06-14T05:48:08;4.43;;;2.35;;
14019;SDS011;7085;51.428;6.796;2023-06-14T05:50:35;2.97;;;2.38;;
14019;SDS011;7085;51.428;6.796;2023-06-14T05:53:02;5.32;;;2.53;;
14019;SDS011;7085;51.428;6.796;2023-06-14T05:55:30;8.77;;;3.15;;
14019;SDS011;7085;51.428;6.796;2023-06-14T05:57:57;3.40;;;2.45;;
14019;SDS011;7085;51.428;6.796;2023-06-14T06:00:24;6.50;;;3.05;;
14019;SDS011;7085;51.428;6.796;2023-06-14T06:02:51;4.22;;;2.22;;
14019;SDS011;7085;51.428;6.796;2023-06-14T06:05:18;4.55;;;2.78;;
14019;SDS011;7085;51.428;6.796;2023-06-14T06:07:45;3.25;;;2.58;;
14019;SDS011;7085;51.428;6.796;2023-06-14T06:10:13;2.85;;;2.47;;
14019;SDS011;7085;51.428;6.796;2023-06-14T06:12:42;6.25;;;2.50;;
14019;SDS011;7085;51.428;6.796;2023-06-14T06:15:09;3.67;;;2.58;;
14019;SDS011;7085;51.428;6.796;2023-06-14T06:17:37;3.30;;;3.00;;
14019;SDS011;7085;51.428;6.796;2023-06-14T06:20:04;3.47;;;2.03;;
14019;SDS011;7085;51.428;6.796;2023-06-14T06:22:33;4.00;;;2.42;;
14019;SDS011;7085;51.428;6.796;2023-06-14T06:25:00;4.97;;;2.63;;
14019;SDS011;7085;51.428;6.796;2023-06-14T06:27:27;3.45;;;2.33;;
14019;SDS011;7085;51.428;6.796;2023-06-14T06:29:56;2.85;;;2.28;;
14019;SDS011;7085;51.428;6.796;2023-06-14T06:32:23;4.57;;;2.38;;
14019;SDS011;7085;51.428;6.796;2023-06-14T06:34:50;3.90;;;2.50;;
14019;SDS011;7085;51.428;6.796;2023-06-14T06:37:17;3.15;;;2.53;;
14019;SDS011;7085;51.428;6.796;2023-06-14T06:39:44;4.63;;;2.10;;
14019;SDS011;7085;51.428;6.796;2023-06-14T06:42:12;6.65;;;2.00;;
14019;SDS011;7085;51.428;6.796;2023-06-14T06:44:40;4.93;;;2.05;;
14019;SDS011;7085;51.428;6.796;2023-06-14T06:47:08;4.38;;;2.10;;
14019;SDS011;7085;51.428;6.796;2023-06-14T06:49:36;6.88;;;2.22;;
14019;SDS011;7085;51.428;6.796;2023-06-14T06:52:03;3.15;;;2.10;;
14019;SDS011;7085;51.428;6.796;2023-06-14T06:54:31;4.55;;;1.83;;
14019;SDS011;7085;51.428;6.796;2023-06-14T06:56:58;2.97;;;2.15;;
14019;SDS011;7085;51.428;6.796;2023-06-14T06:59:26;2.65;;;1.90;;
14019;SDS011;7085;51.428;6.796;2023-06-14T07:01:53;1.80;;;1.70;;
14019;SDS011;7085;51.428;6.796;2023-06-14T07:04:22;2.75;;;1.90;;
14019;SDS011;7085;51.428;6.796;2023-06-14T07:06:49;2.83;;;1.60;;
14019;SDS011;7085;51.428;6.796;2023-06-14T07:09:18;2.30;;;1.90;;
14019;SDS011;7085;51.428;6.796;2023-06-14T07:11:46;4.05;;;1.40;;
14019;SDS011;7085;51.428;6.796;2023-06-14T07:14:13;1.65;;;1.55;;
14019;SDS011;7085;51.428;6.796;2023-06-14T07:16:41;1.27;;;1.20;;
14019;SDS011;7085;51.428;6.796;2023-06-14T07:19:08;2.20;;;1.40;;
14019;SDS011;7085;51.428;6.796;2023-06-14T07:21:36;3.13;;;1.63;;
14019;SDS011;7085;51.428;6.796;2023-06-14T07:24:05;2.80;;;1.45;;
14019;SDS011;7085;51.428;6.796;2023-06-14T07:26:32;4.97;;;1.63;;
14019;SDS011;7085;51.428;6.796;2023-06-14T07:29:00;2.25;;;1.38;;
14019;SDS011;7085;51.428;6.796;2023-06-14T07:31:27;1.50;;;1.40;;
14019;SDS011;7085;51.428;6.796;2023-06-14T07:33:55;2.33;;;1.30;;
14019;SDS011;7085;51.428;6.796;2023-06-14T07:36:22;2.67;;;1.10;;
14019;SDS011;7085;51.428;6.796;2023-06-14T07:38:50;4.25;;;1.30;;
14019;SDS011;7085;51.428;6.796;2023-06-14T07:41:17;4.90;;;1.38;;
14019;SDS011;7085;51.428;6.796;2023-06-14T07:43:44;1.80;;;1.60;;
14019;SDS011;7085;51.428;6.796;2023-06-14T07:46:11;3.83;;;1.45;;
14019;SDS011;7085;51.428;6.796;2023-06-14T07:48:38;1.48;;;1.30;;
14019;SDS011;7085;51.428;6.796;2023-06-14T07:51:05;3.70;;;1.92;;
14019;SDS011;7085;51.428;6.796;2023-06-14T07:53:32;1.80;;;1.55;;
14019;SDS011;7085;51.428;6.796;2023-06-14T07:56:01;2.45;;;1.40;;
14019;SDS011;7085;51.428;6.796;2023-06-14T07:58:28;2.72;;;1.25;;
14019;SDS011;7085;51.428;6.796;2023-06-14T08:00:55;3.55;;;1.73;;
14019;SDS011;7085;51.428;6.796;2023-06-14T08:03:22;1.55;;;1.35;;
14019;SDS011;7085;51.428;6.796;2023-06-14T08:05:50;3.15;;;1.52;;
14019;SDS011;7085;51.428;6.796;2023-06-14T08:08:17;1.65;;;1.55;;
14019;SDS011;7085;51.428;6.796;2023-06-14T08:10:44;4.03;;;1.40;;
14019;SDS011;7085;51.428;6.796;2023-06-14T08:13:12;3.40;;;1.45;;
14019;SDS011;7085;51.428;6.796;2023-06-14T08:15:39;1.90;;;1.27;;
14019;SDS011;7085;51.428;6.796;2023-06-14T08:18:06;3.42;;;1.50;;
14019;SDS011;7085;51.428;6.796;2023-06-14T08:20:33;1.98;;;1.42;;
14019;SDS011;7085;51.428;6.796;2023-06-14T08:23:01;1.50;;;1.40;;
14019;SDS011;7085;51.428;6.796;2023-06-14T08:25:29;1.33;;;0.82;;
14019;SDS011;7085;51.428;6.796;2023-06-14T08:27:56;4.75;;;1.35;;
14019;SDS011;7085;51.428;6.796;2023-06-14T08:30:24;1.73;;;1.63;;
14019;SDS011;7085;51.428;6.796;2023-06-14T08:32:51;2.83;;;1.40;;
14019;SDS011;7085;51.428;6.796;2023-06-14T08:35:20;4.47;;;1.83;;
14019;SDS011;7085;51.428;6.796;2023-06-14T08:37:47;2.75;;;1.67;;
14019;SDS011;7085;51.428;6.796;2023-06-14T08:40:18;2.05;;;1.40;;
14019;SDS011;7085;51.428;6.796;2023-06-14T08:42:47;1.77;;;1.30;;
14019;SDS011;7085;51.428;6.796;2023-06-14T08:45:14;2.85;;;1.45;;
14019;SDS011;7085;51.428;6.796;2023-06-14T08:47:42;1.83;;;1.60;;
14019;SDS011;7085;51.428;6.796;2023-06-14T08:50:10;5.15;;;1.60;;
14019;SDS011;7085;51.428;6.796;2023-06-14T08:52:41;1.95;;;1.67;;
14019;SDS011;7085;51.428;6.796;2023-06-14T08:55:15;2.97;;;1.40;;
14019;SDS011;7085;51.428;6.796;2023-06-14T08:57:45;1.88;;;1.25;;
14019;SDS011;7085;51.428;6.796;2023-06-14T09:00:13;1.75;;;1.30;;
14019;SDS011;7085;51.428;6.796;2023-06-14T09:02:40;2.30;;;1.65;;
14019;SDS011;7085;51.428;6.796;2023-06-14T09:05:10;1.58;;;1.45;;
14019;SDS011;7085;51.428;6.796;2023-06-14T09:07:38;1.63;;;1.52;;
14019;SDS011;7085;51.428;6.796;2023-06-14T09:10:09;1.90;;;1.48;;
14019;SDS011;7085;51.428;6.796;2023-06-14T09:12:37;2.95;;;1.40;;
14019;SDS011;7085;51.428;6.796;2023-06-14T09:15:05;1.88;;;1.65;;
14019;SDS011;7085;51.428;6.796;2023-06-14T09:17:33;2.38;;;1.38;;
14019;SDS011;7085;51.428;6.796;2023-06-14T09:20:00;1.35;;;1.23;;
14019;SDS011;7085;51.428;6.796;2023-06-14T09:22:32;3.05;;;1.60;;
14019;SDS011;7085;51.428;6.796;2023-06-14T09:25:00;1.35;;;1.25;;
14019;SDS011;7085;51.428;6.796;2023-06-14T09:27:29;1.58;;;1.40;;
14019;SDS011;7085;51.428;6.796;2023-06-14T09:29:56;2.65;;;1.38;;
14019;SDS011;7085;51.428;6.796;2023-06-14T09:32:24;3.00;;;1.52;;
14019;SDS011;7085;51.428;6.796;2023-06-14T09:34:51;1.35;;;1.25;;
14019;SDS011;7085;51.428;6.796;2023-06-14T09:37:28;1.98;;;1.50;;
14019;SDS011;7085;51.428;6.796;2023-06-14T09:39:58;1.42;;;1.30;;
14019;SDS011;7085;51.428;6.796;2023-06-14T09:42:25;2.22;;;1.23;;
14019;SDS011;7085;51.428;6.796;2023-06-14T09:44:53;2.65;;;1.02;;
14019;SDS011;7085;51.428;6.796;2023-06-14T09:47:21;1.25;;;1.00;;
14019;SDS011;7085;51.428;6.796;2023-06-14T09:49:48;1.38;;;1.27;;
14019;SDS011;7085;51.428;6.796;2023-06-14T09:52:16;1.13;;;1.05;;
14019;SDS011;7085;51.428;6.796;2023-06-14T09:54:44;1.60;;;1.25;;
14019;SDS011;7085;51.428;6.796;2023-06-14T09:57:14;1.40;;;1.10;;
14019;SDS011;7085;51.428;6.796;2023-06-14T09:59:42;1.05;;;1.00;;
14019;SDS011;7085;51.428;6.796;2023-06-14T10:02:10;1.50;;;1.10;;
14019;SDS011;7085;51.428;6.796;2023-06-14T10:04:39;1.33;;;1.05;;
14019;SDS011;7085;51.428;6.796;2023-06-14T10:07:07;2.72;;;1.15;;
14019;SDS011;7085;51.428;6.796;2023-06-14T10:09:35;1.00;;;1.00;;
14019;SDS011;7085;51.428;6.796;2023-06-14T10:12:04;1.55;;;0.90;;
14019;SDS011;7085;51.428;6.796;2023-06-14T10:14:33;1.00;;;0.90;;
14019;SDS011;7085;51.428;6.796;2023-06-14T10:17:03;1.70;;;1.25;;
14019;SDS011;7085;51.428;6.796;2023-06-14T10:19:33;2.28;;;1.10;;
14019;SDS011;7085;51.428;6.796;2023-06-14T10:22:01;1.48;;;1.30;;
14019;SDS011;7085;51.428;6.796;2023-06-14T10:24:31;1.50;;;0.90;;
14019;SDS011;7085;51.428;6.796;2023-06-14T10:26:59;1.33;;;1.10;;
14019;SDS011;7085;51.428;6.796;2023-06-14T10:29:27;2.83;;;1.13;;
14019;SDS011;7085;51.428;6.796;2023-06-14T10:31:58;3.63;;;1.10;;
14019;SDS011;7085;51.428;6.796;2023-06-14T10:34:26;3.67;;;1.95;;
14019;SDS011;7085;51.428;6.796;2023-06-14T10:37:00;2.35;;;0.70;;
14019;SDS011;7085;51.428;6.796;2023-06-14T10:39:28;3.05;;;0.93;;
14019;SDS011;7085;51.428;6.796;2023-06-14T10:41:56;0.80;;;0.80;;
14019;SDS011;7085;51.428;6.796;2023-06-14T10:44:33;1.48;;;0.73;;
14019;SDS011;7085;51.428;6.796;2023-06-14T10:47:07;2.83;;;0.93;;
14019;SDS011;7085;51.428;6.796;2023-06-14T10:49:42;1.67;;;0.70;;
14019;SDS011;7085;51.428;6.796;2023-06-14T10:52:10;0.60;;;0.60;;
14019;SDS011;7085;51.428;6.796;2023-06-14T10:54:55;0.75;;;0.75;;
14019;SDS011;7085;51.428;6.796;2023-06-14T10:57:22;0.90;;;0.80;;
14019;SDS011;7085;51.428;6.796;2023-06-14T10:59:49;0.60;;;0.60;;
14019;SDS011;7085;51.428;6.796;2023-06-14T11:02:26;0.68;;;0.65;;
14019;SDS011;7085;51.428;6.796;2023-06-14T11:04:56;0.82;;;0.80;;
14019;SDS011;7085;51.428;6.796;2023-06-14T11:07:30;0.75;;;0.60;;
14019;SDS011;7085;51.428;6.796;2023-06-14T11:10:05;0.88;;;0.80;;
14019;SDS011;7085;51.428;6.796;2023-06-14T11:12:36;3.15;;;1.50;;
14019;SDS011;7085;51.428;6.796;2023-06-14T11:15:07;0.70;;;0.70;;
14019;SDS011;7085;51.428;6.796;2023-06-14T11:17:36;1.27;;;0.90;;
14019;SDS011;7085;51.428;6.796;2023-06-14T11:20:09;1.05;;;0.65;;
14019;SDS011;7085;51.428;6.796;2023-06-14T11:22:41;2.97;;;1.10;;
14019;SDS011;7085;51.428;6.796;2023-06-14T11:25:08;0.65;;;0.65;;
14019;SDS011;7085;51.428;6.796;2023-06-14T11:27:36;2.25;;;1.05;;
14019;SDS011;7085;51.428;6.796;2023-06-14T11:30:03;1.02;;;0.90;;
14019;SDS011;7085;51.428;6.796;2023-06-14T11:32:38;1.27;;;1.08;;
14019;SDS011;7085;51.428;6.796;2023-06-14T11:35:06;0.98;;;0.98;;
14019;SDS011;7085;51.428;6.796;2023-06-14T11:37:34;0.70;;;0.70;;
14019;SDS011;7085;51.428;6.796;2023-06-14T11:40:02;0.98;;;0.88;;
14019;SDS011;7085;51.428;6.796;2023-06-14T11:42:31;1.08;;;0.98;;
14019;SDS011;7085;51.428;6.796;2023-06-14T11:44:58;2.63;;;1.10;;
14019;SDS011;7085;51.428;6.796;2023-06-14T11:47:30;1.02;;;0.77;;
14019;SDS011;7085;51.428;6.796;2023-06-14T11:49:59;1.40;;;0.90;;
14019;SDS011;7085;51.428;6.796;2023-06-14T11:52:26;1.77;;;1.30;;
14019;SDS011;7085;51.428;6.796;2023-06-14T11:54:53;2.58;;;1.15;;
14019;SDS011;7085;51.428;6.796;2023-06-14T11:57:20;1.33;;;0.82;;
14019;SDS011;7085;51.428;6.796;2023-06-14T11:59:48;0.50;;;0.50;;
14019;SDS011;7085;51.428;6.796;2023-06-14T12:02:15;1.00;;;0.90;;
14019;SDS011;7085;51.428;6.796;2023-06-14T12:04:42;2.97;;;1.10;;
14019;SDS011;7085;51.428;6.796;2023-06-14T12:07:11;5.03;;;1.40;;
14019;SDS011;7085;51.428;6.796;2023-06-14T12:09:40;0.65;;;0.65;;
14019;SDS011;7085;51.428;6.796;2023-06-14T12:12:09;1.55;;;1.00;;
14019;SDS011;7085;51.428;6.796;2023-06-14T12:14:36;0.85;;;0.70;;
14019;SDS011;7085;51.428;6.796;2023-06-14T12:17:03;1.58;;;1.00;;
14019;SDS011;7085;51.428;6.796;2023-06-14T12:19:31;1.50;;;1.10;;
14019;SDS011;7085;51.428;6.796;2023-06-14T12:21:59;1.45;;;0.70;;
14019;SDS011;7085;51.428;6.796;2023-06-14T12:24:31;1.10;;;1.00;;
14019;SDS011;7085;51.428;6.796;2023-06-14T12:26:58;1.02;;;0.90;;
14019;SDS011;7085;51.428;6.796;2023-06-14T12:29:27;2.40;;;0.93;;
14019;SDS011;7085;51.428;6.796;2023-06-14T12:31:55;0.70;;;0.70;;
14019;SDS011;7085;51.428;6.796;2023-06-14T12:34:22;1.13;;;0.88;;
14019;SDS011;7085;51.428;6.796;2023-06-14T12:36:49;1.10;;;1.00;;
14019;SDS011;7085;51.428;6.796;2023-06-14T12:39:16;1.35;;;1.20;;
14019;SDS011;7085;51.428;6.796;2023-06-14T12:41:45;1.27;;;1.10;;
14019;SDS011;7085;51.428;6.796;2023-06-14T12:44:12;1.23;;;1.13;;
14019;SDS011;7085;51.428;6.796;2023-06-14T12:46:39;3.65;;;1.20;;
14019;SDS011;7085;51.428;6.796;2023-06-14T12:49:07;1.45;;;1.10;;
14019;SDS011;7085;51.428;6.796;2023-06-14T12:51:34;1.50;;;1.40;;
14019;SDS011;7085;51.428;6.796;2023-06-14T12:54:02;1.02;;;1.02;;
14019;SDS011;7085;51.428;6.796;2023-06-14T12:56:29;5.00;;;1.38;;
14019;SDS011;7085;51.428;6.796;2023-06-14T12:58:57;3.95;;;1.48;;
14019;SDS011;7085;51.428;6.796;2023-06-14T13:01:25;2.25;;;1.17;;
14019;SDS011;7085;51.428;6.796;2023-06-14T13:03:52;1.80;;;1.20;;
14019;SDS011;7085;51.428;6.796;2023-06-14T13:06:20;3.80;;;1.23;;
14019;SDS011;7085;51.428;6.796;2023-06-14T13:08:47;1.70;;;1.30;;
14019;SDS011;7085;51.428;6.796;2023-06-14T13:11:15;2.15;;;1.30;;
14019;SDS011;7085;51.428;6.796;2023-06-14T13:13:42;1.27;;;1.17;;
14019;SDS011;7085;51.428;6.796;2023-06-14T13:16:10;3.33;;;1.20;;
14019;SDS011;7085;51.428;6.796;2023-06-14T13:18:39;1.00;;;1.00;;
14019;SDS011;7085;51.428;6.796;2023-06-14T13:21:06;1.38;;;1.27;;
14019;SDS011;7085;51.428;6.796;2023-06-14T13:23:33;2.22;;;1.30;;
14019;SDS011;7085;51.428;6.796;2023-06-14T13:26:00;1.45;;;1.35;;
14019;SDS011;7085;51.428;6.796;2023-06-14T13:28:27;1.73;;;1.30;;
14019;SDS011;7085;51.428;6.796;2023-06-14T13:30:56;4.65;;;1.77;;
14019;SDS011;7085;51.428;6.796;2023-06-14T13:33:25;6.18;;;1.50;;
14019;SDS011;7085;51.428;6.796;2023-06-14T13:35:52;1.33;;;1.23;;
14019;SDS011;7085;51.428;6.796;2023-06-14T13:38:19;1.85;;;1.40;;
14019;SDS011;7085;51.428;6.796;2023-06-14T13:40:46;2.88;;;1.50;;
14019;SDS011;7085;51.428;6.796;2023-06-14T13:43:13;1.60;;;1.50;;
14019;SDS011;7085;51.428;6.796;2023-06-14T13:45:40;1.23;;;1.10;;
14019;SDS011;7085;51.428;6.796;2023-06-14T13:48:07;1.52;;;1.42;;
14019;SDS011;7085;51.428;6.796;2023-06-14T13:50:35;1.92;;;1.38;;
14019;SDS011;7085;51.428;6.796;2023-06-14T13:53:03;1.42;;;1.27;;
14019;SDS011;7085;51.428;6.796;2023-06-14T13:55:30;1.98;;;1.20;;
14019;SDS011;7085;51.428;6.796;2023-06-14T13:57:58;2.00;;;0.95;;
14019;SDS011;7085;51.428;6.796;2023-06-14T14:00:25;1.13;;;1.00;;
14019;SDS011;7085;51.428;6.796;2023-06-14T14:02:52;1.45;;;1.35;;
14019;SDS011;7085;51.428;6.796;2023-06-14T14:05:19;1.55;;;1.30;;
14019;SDS011;7085;51.428;6.796;2023-06-14T14:07:52;4.50;;;1.30;;
14019;SDS011;7085;51.428;6.796;2023-06-14T14:10:20;1.73;;;1.40;;
14019;SDS011;7085;51.428;6.796;2023-06-14T14:12:48;2.78;;;1.25;;
14019;SDS011;7085;51.428;6.796;2023-06-14T14:15:15;2.47;;;1.20;;
14019;SDS011;7085;51.428;6.796;2023-06-14T14:17:42;3.63;;;1.30;;
14019;SDS011;7085;51.428;6.796;2023-06-14T14:20:10;1.40;;;1.30;;
14019;SDS011;7085;51.428;6.796;2023-06-14T14:22:40;1.77;;;1.25;;
14019;SDS011;7085;51.428;6.796;2023-06-14T14:25:11;2.08;;;1.33;;
14019;SDS011;7085;51.428;6.796;2023-06-14T14:27:38;3.38;;;1.40;;
14019;SDS011;7085;51.428;6.796;2023-06-14T14:30:06;1.45;;;1.35;;
14019;SDS011;7085;51.428;6.796;2023-06-14T14:32:33;1.30;;;1.20;;
14019;SDS011;7085;51.428;6.796;2023-06-14T14:35:00;3.72;;;1.38;;
14019;SDS011;7085;51.428;6.796;2023-06-14T14:37:27;1.35;;;1.25;;
14019;SDS011;7085;51.428;6.796;2023-06-14T14:39:54;1.15;;;1.15;;
14019;SDS011;7085;51.428;6.796;2023-06-14T14:42:23;1.08;;;1.08;;
14019;SDS011;7085;51.428;6.796;2023-06-14T14:44:51;1.27;;;1.17;;
14019;SDS011;7085;51.428;6.796;2023-06-14T14:47:18;2.65;;;1.40;;
14019;SDS011;7085;51.428;6.796;2023-06-14T14:49:45;2.72;;;1.35;;
14019;SDS011;7085;51.428;6.796;2023-06-14T14:52:12;1.45;;;1.35;;
14019;SDS011;7085;51.428;6.796;2023-06-14T14:54:42;3.42;;;1.40;;
14019;SDS011;7085;51.428;6.796;2023-06-14T14:57:09;1.42;;;1.33;;
14019;SDS011;7085;51.428;6.796;2023-06-14T14:59:38;1.40;;;1.30;;
14019;SDS011;7085;51.428;6.796;2023-06-14T15:02:05;1.48;;;1.38;;
14019;SDS011;7085;51.428;6.796;2023-06-14T15:04:32;3.00;;;1.20;;
14019;SDS011;7085;51.428;6.796;2023-06-14T15:06:59;3.85;;;1.38;;
14019;SDS011;7085;51.428;6.796;2023-06-14T15:09:26;1.50;;;1.40;;
14019;SDS011;7085;51.428;6.796;2023-06-14T15:11:53;1.48;;;1.35;;
14019;SDS011;7085;51.428;6.796;2023-06-14T15:14:20;1.77;;;1.65;;
14019;SDS011;7085;51.428;6.796;2023-06-14T15:16:49;2.30;;;1.45;;
14019;SDS011;7085;51.428;6.796;2023-06-14T15:19:17;4.57;;;1.65;;
14019;SDS011;7085;51.428;6.796;2023-06-14T15:21:44;1.95;;;1.67;;
14019;SDS011;7085;51.428;6.796;2023-06-14T15:24:11;1.50;;;1.40;;
14019;SDS011;7085;51.428;6.796;2023-06-14T15:26:38;1.83;;;1.65;;
14019;SDS011;7085;51.428;6.796;2023-06-14T15:29:08;2.15;;;1.55;;
14019;SDS011;7085;51.428;6.796;2023-06-14T15:31:35;1.77;;;1.25;;
14019;SDS011;7085;51.428;6.796;2023-06-14T15:34:04;2.00;;;1.80;;
14019;SDS011;7085;51.428;6.796;2023-06-14T15:36:31;2.67;;;1.48;;
14019;SDS011;7085;51.428;6.796;2023-06-14T15:38:58;1.98;;;1.58;;
14019;SDS011;7085;51.428;6.796;2023-06-14T15:41:25;1.73;;;1.60;;
14019;SDS011;7085;51.428;6.796;2023-06-14T15:43:52;3.10;;;1.45;;
14019;SDS011;7085;51.428;6.796;2023-06-14T15:46:20;1.40;;;1.30;;
14019;SDS011;7085;51.428;6.796;2023-06-14T15:48:48;2.45;;;1.65;;
14019;SDS011;7085;51.428;6.796;2023-06-14T15:51:19;1.60;;;1.50;;
14019;SDS011;7085;51.428;6.796;2023-06-14T15:53:46;1.70;;;1.60;;
14019;SDS011;7085;51.428;6.796;2023-06-14T15:56:13;3.70;;;1.98;;
14019;SDS011;7085;51.428;6.796;2023-06-14T15:58:40;4.20;;;1.73;;
14019;SDS011;7085;51.428;6.796;2023-06-14T16:01:08;4.60;;;1.23;;
14019;SDS011;7085;51.428;6.796;2023-06-14T16:03:35;4.25;;;1.45;;
14019;SDS011;7085;51.428;6.796;2023-06-14T16:06:02;2.65;;;1.88;;
14019;SDS011;7085;51.428;6.796;2023-06-14T16:08:31;2.22;;;1.40;;
14019;SDS011;7085;51.428;6.796;2023-06-14T16:10:58;2.22;;;1.60;;
14019;SDS011;7085;51.428;6.796;2023-06-14T16:13:25;1.42;;;1.33;;
14019;SDS011;7085;51.428;6.796;2023-06-14T16:15:52;1.67;;;1.58;;
14019;SDS011;7085;51.428;6.796;2023-06-14T16:18:19;3.38;;;1.50;;
14019;SDS011;7085;51.428;6.796;2023-06-14T16:20:46;2.25;;;1.70;;
14019;SDS011;7085;51.428;6.796;2023-06-14T16:23:14;5.22;;;1.90;;
14019;SDS011;7085;51.428;6.796;2023-06-14T16:25:44;3.85;;;2.00;;
14019;SDS011;7085;51.428;6.796;2023-06-14T16:28:11;1.75;;;1.65;;
14019;SDS011;7085;51.428;6.796;2023-06-14T16:30:38;4.82;;;1.45;;
14019;SDS011;7085;51.428;6.796;2023-06-14T16:33:05;2.47;;;2.00;;
14019;SDS011;7085;51.428;6.796;2023-06-14T16:35:34;1.75;;;1.65;;
14019;SDS011;7085;51.428;6.796;2023-06-14T16:38:01;4.07;;;1.67;;
14019;SDS011;7085;51.428;6.796;2023-06-14T16:40:28;1.60;;;1.50;;
14019;SDS011;7085;51.428;6.796;2023-06-14T16:42:56;2.33;;;1.50;;
14019;SDS011;7085;51.428;6.796;2023-06-14T16:45:23;3.13;;;1.70;;
14019;SDS011;7085;51.428;6.796;2023-06-14T16:47:51;1.63;;;1.50;;
14019;SDS011;7085;51.428;6.796;2023-06-14T16:50:18;2.05;;;1.67;;
14019;SDS011;7085;51.428;6.796;2023-06-14T16:52:46;1.70;;;1.60;;
14019;SDS011;7085;51.428;6.796;2023-06-14T16:55:13;3.72;;;1.58;;
14019;SDS011;7085;51.428;6.796;2023-06-14T16:57:40;2.97;;;1.48;;
14019;SDS011;7085;51.428;6.796;2023-06-14T17:00:09;2.92;;;1.60;;
14019;SDS011;7085;51.428;6.796;2023-06-14T17:02:36;2.53;;;1.50;;
14019;SDS011;7085;51.428;6.796;2023-06-14T17:05:03;2.65;;;1.38;;
14019;SDS011;7085;51.428;6.796;2023-06-14T17:07:31;2.58;;;1.77;;
14019;SDS011;7085;51.428;6.796;2023-06-14T17:09:58;1.70;;;1.60;;
14019;SDS011;7085;51.428;6.796;2023-06-14T17:12:25;1.50;;;1.40;;
14019;SDS011;7085;51.428;6.796;2023-06-14T17:14:52;1.85;;;1.60;;
14019;SDS011;7085;51.428;6.796;2023-06-14T17:17:20;2.30;;;1.67;;
14019;SDS011;7085;51.428;6.796;2023-06-14T17:19:48;3.22;;;1.50;;
14019;SDS011;7085;51.428;6.796;2023-06-14T17:22:17;2.28;;;1.50;;
14019;SDS011;7085;51.428;6.796;2023-06-14T17:24:44;2.13;;;1.90;;
14019;SDS011;7085;51.428;6.796;2023-06-14T17:27:11;2.67;;;1.50;;
14019;SDS011;7085;51.428;6.796;2023-06-14T17:29:38;1.90;;;1.58;;
14019;SDS011;7085;51.428;6.796;2023-06-14T17:32:09;1.70;;;1.60;;
14019;SDS011;7085;51.428;6.796;2023-06-14T17:34:37;3.13;;;2.00;;
14019;SDS011;7085;51.428;6.796;2023-06-14T17:37:04;1.92;;;1.70;;
14019;SDS011;7085;51.428;6.796;2023-06-14T17:39:32;3.85;;;2.13;;
14019;SDS011;7085;51.428;6.796;2023-06-14T17:42:01;2.03;;;1.90;;
14019;SDS011;7085;51.428;6.796;2023-06-14T17:44:31;2.00;;;1.60;;
14019;SDS011;7085;51.428;6.796;2023-06-14T17:46:58;1.60;;;1.50;;
14019;SDS011;7085;51.428;6.796;2023-06-14T17:49:25;1.60;;;1.50;;
14019;SDS011;7085;51.428;6.796;2023-06-14T17:51:54;2.75;;;1.50;;
14019;SDS011;7085;51.428;6.796;2023-06-14T17:54:23;2.08;;;1.85;;
14019;SDS011;7085;51.428;6.796;2023-06-14T17:56:50;5.38;;;1.63;;
14019;SDS011;7085;51.428;6.796;2023-06-14T17:59:17;2.20;;;2.00;;
14019;SDS011;7085;51.428;6.796;2023-06-14T18:01:45;3.78;;;1.73;;
14019;SDS011;7085;51.428;6.796;2023-06-14T18:04:12;1.90;;;1.80;;
14019;SDS011;7085;51.428;6.796;2023-06-14T18:06:39;2.00;;;1.80;;